Eckerman, MI

3:26 AM EST on November 24, 2014 (GMT -0500)
Luce County | Change Station
CLOSE
Current Station
Airport
Location: Newberry,
Elevation: 869 ft
Nearby Weather Stations

Elev 869 ft 46.31 °N, 85.46 °W | Updated 12 minutes ago

Rain
Rain
40 °F
Feels Like 34 °F
N
9
Wind Variable Wind from ENE

Today
High -- | Low -- °F
--% Chance of Precip.
Yesterday
High -- | Low -- °F
Precip. -- in
7:54 AM 4:59 PM
Waxing Crescent, 4% visible
Pressure 29.06 in
Visibility 1.5 miles
Clouds Overcast 200 ft
Windchill 34 °F
Dew Point 40 °F
Humidity 100%
Rainfall 0.41 in
Snow Depth Not available.
UV 0 out of 12
Pollen .10 out of 12
Air Quality Not available.
Flu Activity Not available.
METAR KERY 240814Z AUTO 06008KT 1 1/2SM -RA OVC002 04/04 A2906 RMK AO2 VIS 3/4V4 P0004 T00440044

More Conditions Fewer Conditions

Pressure 29.06 in
Visibility 1.5 miles
Clouds Overcast 200 ft
Windchill 34 °F
Dew Point 40 °F
Humidity 100%
Rainfall 0.41 in
Snow Depth Not available.
UV 0 out of 12
Pollen .10 out of 12
Air Quality Not available.
Flu Activity Not available.
METAR KERY 240814Z AUTO 06008KT 1 1/2SM -RA OVC002 04/04 A2906 RMK AO2 VIS 3/4V4 P0004 T00440044

More Conditions Fewer Conditions

Nowcast | as of 3:00 am EST on November 24, 2014

At 4 am...areas of dense fog. Rain. Temperature 41. East winds 10 mph. At 6 am...areas of dense fog. Rain. Temperature 40. East winds 9 mph. At 8 am...periods of rain. Temperature 40. Southeast winds 7 mph. At 10 am...periods of rain. Temperature 41. South winds 5 mph.

×

10-Day Weather Forecast

Almanac

Astronomy

Nov. 24, 2014 Rise Set
Actual Time
Civil Twilight
Nautical Twilight
Astronomical Twilight
Moon
Length of Visible Light
Length of Day
Tomorrow will be .
, % of the Moon is Illuminated

Today's Extremes

State Highs State Lows

Community

WunderPhotos

Upload Photos

1,773,295 photos uploaded!

WunderBlogs® & News

Nearby

Air Quality

  Air Quality AQ Index Pollutant
Not available.

Snow Depth

Station Depth Elevation

Earthquake Activity

City Distance Mag. Time & Date
Minimum magnitude displayed is 2.5.

Coastal Water Temperatures

Place Temperature

Nearby Weather Stations